Time;durP1;ratioP1;P1;durP2;ratioP2;P2;SDS_P1;SDS_P2;PMS_P1;PMS_P2;Temp;Humidity;BMP_temperature;BMP_pressure;BME280_temperature;BME280_humidity;BME280_pressure;Samples;Min_cycle;Max_cycle;Signal;HPM_P1;HPM_P2
2022/01/21 00:01:46;;;;;;;8.68;5.90;;;;;;;18.70;53.39;97909.28;10455608;28;20068;-22
2022/01/21 00:06:47;;;;;;;10.95;5.10;;;;;;;18.69;53.17;97922.81;10424045;28;20029;-22
2022/01/21 00:11:47;;;;;;;9.83;5.37;;;;;;;18.68;53.27;97911.78;10433708;28;20040;-22
2022/01/21 00:16:47;;;;;;;10.43;5.13;;;;;;;18.69;53.39;97912.66;10454602;28;20059;-22
2022/01/21 00:32:26;;;;;;;7.38;5.40;;;;;;;18.70;53.29;97912.72;10453761;28;20045;-22
2022/01/21 00:37:27;;;;;;;5.97;4.60;;;;;;;18.69;53.24;97898.31;10450726;28;20045;-22
2022/01/21 00:47:37;;;;;;;9.57;4.90;;;;;;;18.61;53.36;97888.84;10452343;28;20286;-22
2022/01/21 00:52:37;;;;;;;7.95;5.07;;;;;;;18.71;53.47;97901.72;10414974;28;20496;-22
2022/01/21 00:57:38;;;;;;;7.18;4.90;;;;;;;18.69;53.56;97905.06;10412147;28;20033;-22
2022/01/21 01:02:39;;;;;;;9.10;4.90;;;;;;;18.68;53.61;97906.72;10412128;28;20060;-22
2022/01/21 01:07:40;;;;;;;8.88;4.90;;;;;;;18.68;53.57;97900.81;10445812;28;20037;-22
2022/01/21 01:19:52;;;;;;;7.70;4.40;;;;;;;18.69;53.52;97894.91;10409115;28;20036;-23
2022/01/21 01:23:38;;;;;;;6.30;4.25;;;;;;;18.69;53.61;97898.31;10385195;28;20036;-22
2022/01/21 01:28:39;;;;;;;;;;;;;;;18.69;53.57;97902.53;10441501;28;20029;-22
2022/01/21 01:33:41;;;;;;;9.75;4.90;;;;;;;18.68;53.26;97901.66;10451172;28;19917;-22
2022/01/21 01:49:36;;;;;;;6.25;4.25;;;;;;;18.67;53.51;97904.19;10448571;28;20357;-22
2022/01/21 01:54:43;;;;;;;7.72;4.57;;;;;;;18.66;53.53;97907.56;10417958;28;20277;-22
2022/01/21 01:59:43;;;;;;;7.00;4.32;;;;;;;18.60;53.76;97912.50;10407326;28;20482;-22
2022/01/21 02:04:46;;;;;;;7.93;4.40;;;;;;;18.62;53.83;97900.69;10408393;28;20044;-22
2022/01/21 02:09:46;;;;;;;8.90;4.45;;;;;;;18.63;53.46;97917.63;10409590;28;20128;-22
2022/01/21 02:14:50;;;;;;;7.80;4.20;;;;;;;18.64;53.50;97912.59;10408403;28;20125;-22
2022/01/21 02:25:16;;;;;;;6.32;4.20;;;;;;;18.63;53.55;97917.63;10439875;28;20044;-22
2022/01/21 02:30:18;;;;;;;7.57;4.00;;;;;;;18.66;53.25;97918.53;10407274;28;20041;-22
2022/01/21 02:35:21;;;;;;;8.25;4.07;;;;;;;18.64;53.30;97915.13;10407128;28;20128;-22
2022/01/21 02:40:22;;;;;;;7.60;4.40;;;;;;;18.60;53.47;97913.34;10415903;28;20087;-22
2022/01/21 02:45:22;;;;;;;6.30;4.35;;;;;;;18.62;53.40;97910.84;10449887;28;20032;-22
2022/01/21 02:50:23;;;;;;;8.52;4.63;;;;;;;18.60;53.29;97918.41;10436435;28;20558;-22
2022/01/21 02:55:24;;;;;;;6.27;3.37;;;;;;;18.60;53.29;97917.56;10415371;28;20037;-22
2022/01/21 03:00:24;;;;;;;7.35;3.67;;;;;;;18.59;53.49;97898.13;10449152;28;20029;-22
2022/01/21 03:05:25;;;;;;;5.63;3.55;;;;;;;18.61;53.20;97898.97;10424258;28;20128;-22
2022/01/21 03:10:26;;;;;;;6.30;4.23;;;;;;;18.61;53.31;97910.00;10415297;28;20036;-22
2022/01/21 03:15:26;;;;;;;4.38;3.58;;;;;;;18.61;53.31;97904.06;10448226;28;20523;-22
2022/01/21 03:20:27;;;;;;;4.90;3.80;;;;;;;18.65;53.11;97910.88;10422363;28;20037;-23
2022/01/21 03:25:28;;;;;;;6.47;3.87;;;;;;;18.65;53.10;97921.03;10415892;28;20326;-22
2022/01/21 03:30:28;;;;;;;4.65;3.13;;;;;;;18.62;53.17;97921.84;10447412;28;20029;-22
2022/01/21 03:35:34;;;;;;;4.80;3.40;;;;;;;18.59;53.18;97924.31;10425461;28;20073;-22
2022/01/21 03:40:35;;;;;;;5.38;3.05;;;;;;;18.63;53.23;97935.38;10417623;28;20509;-22
2022/01/21 03:45:36;;;;;;;5.10;3.08;;;;;;;18.63;53.38;97928.63;10455668;28;20033;-22
2022/01/21 03:50:36;;;;;;;3.83;3.13;;;;;;;18.63;53.07;97918.50;10452535;28;20041;-22
2022/01/21 03:55:38;;;;;;;5.43;3.25;;;;;;;18.64;53.14;97924.41;10442016;28;20029;-22
2022/01/21 04:00:43;;;;;;;3.90;3.10;;;;;;;18.60;53.32;97913.34;10412436;28;20504;-22
2022/01/21 04:05:44;;;;;;;6.72;3.33;;;;;;;18.60;53.29;97922.66;10443927;28;20033;-22
2022/01/21 04:10:48;;;;;;;4.63;3.03;;;;;;;18.62;53.09;97929.47;10441037;28;20152;-23
2022/01/21 04:15:50;;;;;;;4.38;3.28;;;;;;;18.63;53.05;97931.16;10412332;28;20033;-22
2022/01/21 04:20:53;;;;;;;4.05;3.22;;;;;;;18.59;53.09;97919.25;10431914;28;20403;-22
2022/01/21 04:25:54;;;;;;;3.75;2.80;;;;;;;18.59;53.24;97918.41;10438712;28;20344;-22
2022/01/21 04:30:54;;;;;;;5.13;3.20;;;;;;;18.60;53.31;97922.66;10413865;28;20117;-22
2022/01/21 04:36:04;;;;;;;3.75;2.65;;;;;;;18.59;53.16;97939.53;10411202;28;20095;-22
2022/01/21 04:41:36;;;;;;;5.47;3.53;;;;;;;18.64;53.05;97944.69;10411527;28;20040;-22
2022/01/21 04:52:04;;;;;;;4.27;2.60;;;;;;;18.66;53.17;97938.00;10411708;28;20044;-23
2022/01/21 04:57:26;;;;;;;8.05;3.30;;;;;;;18.63;53.20;97927.75;10404688;28;20303;-22
2022/01/21 05:02:28;;;;;;;6.93;2.90;;;;;;;18.64;53.14;97942.16;10411866;28;20032;-22
2022/01/21 05:07:33;;;;;;;7.50;3.10;;;;;;;18.66;52.95;97955.75;10437305;28;20461;-22
2022/01/21 05:12:34;;;;;;;5.03;2.97;;;;;;;18.64;52.96;97953.16;10449943;28;20044;-22
2022/01/21 05:17:43;;;;;;;6.47;2.83;;;;;;;18.64;53.11;97963.31;10451057;28;20033;-22
2022/01/21 05:22:45;;;;;;;8.23;3.17;;;;;;;18.59;52.81;97942.06;10410196;28;20079;-22
2022/01/21 05:27:47;;;;;;;5.88;2.75;;;;;;;18.71;52.84;97959.19;10421916;28;20039;-22
2022/01/21 05:32:47;;;;;;;4.88;2.95;;;;;;;18.70;52.69;97960.03;10409045;28;20053;-20
2022/01/21 05:38:14;;;;;;;4.35;2.60;;;;;;;18.72;52.50;97959.25;10437676;28;20515;-22
2022/01/21 05:43:34;;;;;;;7.82;3.30;;;;;;;18.70;52.74;97976.13;10415794;28;20045;-22
2022/01/21 05:48:56;;;;;;;6.47;3.17;;;;;;;18.63;49.44;97974.28;10413001;28;20029;-23
2022/01/21 05:54:30;;;;;;;9.48;3.58;;;;;;;18.37;45.77;97979.66;10439711;28;20045;-22
2022/01/21 05:59:49;;;;;;;6.05;2.63;;;;;;;18.26;44.25;97976.03;10409627;28;20041;-22
2022/01/21 06:04:50;;;;;;;5.88;2.33;;;;;;;18.41;47.53;97987.38;10412121;28;20029;-22
2022/01/21 06:09:51;;;;;;;6.97;2.47;;;;;;;18.57;48.52;97998.69;10436239;28;20572;-22
2022/01/21 06:14:52;;;;;;;9.13;4.27;;;;;;;18.49;48.03;97998.53;10448565;28;20032;-22
2022/01/21 06:19:52;;;;;;;6.80;2.85;;;;;;;18.56;50.38;97986.81;10446871;28;20209;-22
2022/01/21 06:24:53;;;;;;;5.33;2.30;;;;;;;18.57;50.83;98003.75;10443572;28;20033;-22
2022/01/21 06:29:54;;;;;;;11.10;3.22;;;;;;;18.58;50.95;98016.47;10408864;28;20029;-22
2022/01/21 06:34:54;;;;;;;7.40;2.58;;;;;;;18.59;50.97;98013.09;10430440;28;20043;-22
2022/01/21 06:39:55;;;;;;;9.03;3.30;;;;;;;18.63;50.65;98019.94;10443755;28;20403;-22
2022/01/21 06:44:55;;;;;;;11.40;2.77;;;;;;;18.62;50.20;98025.00;10408421;28;20373;-22
2022/01/21 06:49:59;;;;;;;7.47;2.80;;;;;;;18.59;50.42;98042.69;10421356;28;20415;-22
2022/01/21 06:55:00;;;;;;;8.52;3.28;;;;;;;18.57;47.91;98059.56;10450414;28;20037;-22
2022/01/21 07:00:00;;;;;;;9.93;2.58;;;;;;;18.54;47.21;98065.44;10452137;28;20048;-22
2022/01/21 07:05:02;;;;;;;9.03;2.57;;;;;;;18.51;46.98;98055.19;10431970;28;20380;-22
2022/01/21 07:10:05;;;;;;;8.23;2.78;;;;;;;18.54;49.96;98069.63;10417202;28;20033;-23
2022/01/21 07:15:07;;;;;;;51.83;6.93;;;;;;;18.34;48.12;98063.28;10454016;28;20037;-22
2022/01/21 07:20:09;;;;;;;27.90;4.10;;;;;;;18.49;50.51;98059.38;10442928;28;20080;-22
2022/01/21 07:25:10;;;;;;;25.75;3.95;;;;;;;18.01;47.24;98068.41;10418271;28;20048;-22
2022/01/21 07:30:12;;;;;;;18.65;4.35;;;;;;;18.34;50.17;98070.91;10418474;28;20411;-22
2022/01/21 07:35:14;;;;;;;10.90;2.90;;;;;;;18.48;50.24;98069.50;10437507;28;20083;-22
2022/01/21 07:40:15;;;;;;;18.50;3.38;;;;;;;18.49;50.50;98079.69;10450522;28;20077;-22
2022/01/21 07:45:15;;;;;;;12.80;2.97;;;;;;;18.51;50.58;98082.25;10417352;28;20717;-22
2022/01/21 07:50:16;;;;;;;8.02;2.88;;;;;;;18.49;50.70;98088.97;10438771;28;20291;-23
2022/01/21 07:55:16;;;;;;;12.10;3.35;;;;;;;18.50;50.80;98090.69;10457071;28;20098;-23
2022/01/21 08:00:17;;;;;;;9.53;3.20;;;;;;;18.52;50.79;98089.03;10456565;28;20120;-23
2022/01/21 08:05:17;;;;;;;11.85;2.83;;;;;;;18.51;51.03;98090.69;10431437;28;20045;-22
2022/01/21 08:10:18;;;;;;;9.03;3.47;;;;;;;18.51;51.04;98084.78;10421216;28;20045;-22
2022/01/21 08:15:18;;;;;;;9.73;3.17;;;;;;;18.51;51.15;98092.41;10453388;28;20037;-22
2022/01/21 08:20:19;;;;;;;8.23;2.47;;;;;;;18.53;51.22;98098.34;10454955;28;20116;-22
2022/01/21 08:25:20;;;;;;;5.95;2.25;;;;;;;18.51;51.45;98088.16;10401419;28;20033;-22
2022/01/21 08:30:21;;;;;;;7.65;2.83;;;;;;;18.55;51.23;98089.97;10413415;28;20455;-22
2022/01/21 08:35:21;;;;;;;5.63;2.42;;;;;;;18.54;51.48;98097.53;10440860;28;20119;-22
2022/01/21 08:40:23;;;;;;;7.93;2.65;;;;;;;18.51;51.52;98090.69;10444046;28;20040;-22
2022/01/21 08:45:23;;;;;;;7.35;2.22;;;;;;;18.53;51.46;98085.69;10412664;28;20037;-22
2022/01/21 08:50:27;;;;;;;6.72;2.70;;;;;;;18.56;51.50;98078.13;10428442;28;20463;-22
2022/01/21 08:55:27;;;;;;;9.55;2.97;;;;;;;18.55;51.57;98077.28;10443470;28;20033;-22
2022/01/21 09:00:28;;;;;;;5.43;2.33;;;;;;;18.55;51.61;98082.34;10411921;28;20022;-22
2022/01/21 09:05:28;;;;;;;7.72;2.80;;;;;;;18.55;51.69;98106.84;10424043;28;20036;-24
2022/01/21 09:10:29;;;;;;;5.95;2.58;;;;;;;18.48;51.80;98110.94;10426366;28;20585;-22
2022/01/21 09:15:31;;;;;;;6.63;2.30;;;;;;;18.45;51.81;98120.16;10452555;28;20043;-22
2022/01/21 09:20:33;;;;;;;5.20;2.42;;;;;;;18.36;51.64;98103.06;10421401;28;20040;-20
2022/01/21 09:25:33;;;;;;;7.28;2.70;;;;;;;18.41;50.95;98119.22;10420841;28;20068;-22
2022/01/21 09:30:34;;;;;;;12.50;2.60;;;;;;;18.45;51.63;98120.16;10429818;28;20033;-22
2022/01/21 09:35:35;;;;;;;10.40;3.53;;;;;;;18.40;50.35;98122.59;10410487;28;20037;-22
2022/01/21 09:40:42;;;;;;;12.40;4.77;;;;;;;18.44;50.77;98116.78;10434304;28;20484;-22
2022/01/21 09:45:54;;;;;;;15.95;4.25;;;;;;;18.43;50.25;98114.19;10410573;28;20300;-22
2022/01/21 09:50:58;;;;;;;15.88;5.05;;;;;;;18.47;50.17;98123.56;10432582;28;20025;-22
2022/01/21 09:56:01;;;;;;;16.50;5.18;;;;;;;18.46;50.50;98114.25;10436961;28;20111;-22
2022/01/21 10:01:06;;;;;;;13.63;5.28;;;;;;;18.48;50.72;98137.97;10407820;28;20031;-22
2022/01/21 10:06:06;;;;;;;21.60;5.97;;;;;;;18.44;51.20;98139.59;10441062;28;20041;-22
2022/01/21 10:11:09;;;;;;;19.95;4.93;;;;;;;18.45;51.33;98141.31;10434268;28;20041;-22
2022/01/21 10:16:09;;;;;;;11.43;4.15;;;;;;;18.33;51.18;98114.81;10408875;28;20485;-22
2022/01/21 10:21:10;;;;;;;14.77;4.43;;;;;;;18.50;50.96;98131.28;10409533;28;20041;-22
2022/01/21 10:26:13;;;;;;;13.30;5.22;;;;;;;18.53;51.17;98138.94;10423212;28;20781;-22
2022/01/21 10:31:18;;;;;;;17.60;5.35;;;;;;;18.51;51.40;98145.66;10449818;28;20045;-22
2022/01/21 10:36:26;;;;;;;12.40;4.50;;;;;;;18.51;51.29;98154.09;10448133;28;20033;-22
2022/01/21 10:41:32;;;;;;;9.10;4.03;;;;;;;18.50;51.59;98146.50;10431190;28;20033;-22
2022/01/21 10:46:32;;;;;;;9.65;4.00;;;;;;;18.50;51.62;98139.72;10408039;28;20033;-22
2022/01/21 10:51:36;;;;;;;12.45;4.32;;;;;;;18.49;51.61;98137.16;10413510;28;20041;-23
2022/01/21 10:56:36;;;;;;;8.38;4.18;;;;;;;18.44;51.90;98124.38;10416788;28;20040;-22
2022/01/21 11:01:36;;;;;;;9.70;4.97;;;;;;;18.49;51.67;98121.94;10401894;28;20378;-22
2022/01/21 11:06:50;;;;;;;13.43;3.40;;;;;;;18.49;52.04;98116.88;10413872;28;20412;-22
2022/01/21 11:12:11;;;;;;;12.63;4.70;;;;;;;18.52;52.20;98127.94;10434953;28;20342;-22
2022/01/21 11:17:15;;;;;;;12.02;4.20;;;;;;;18.51;52.21;98115.22;10457815;28;20094;-22
2022/01/21 11:22:15;;;;;;;26.55;5.25;;;;;;;18.54;52.33;98106.00;10455348;28;20029;-22
2022/01/21 11:27:17;;;;;;;18.63;5.50;;;;;;;18.43;52.51;98092.22;10430868;28;20041;-22
2022/01/21 11:32:17;;;;;;;18.48;5.18;;;;;;;18.48;51.45;98097.38;10416671;28;20051;-22
2022/01/21 11:37:18;;;;;;;17.33;4.47;;;;;;;18.47;52.28;98098.22;10445101;28;20051;-22
2022/01/21 11:42:18;;;;;;;22.15;5.72;;;;;;;18.47;52.65;98096.53;10431179;28;20284;-22
2022/01/21 11:47:38;;;;;;;11.90;4.13;;;;;;;18.46;51.19;98101.56;10416371;28;20400;-22
2022/01/21 11:52:45;;;;;;;10.93;4.00;;;;;;;18.52;52.47;98111.88;10455607;28;20372;-22
2022/01/21 11:57:46;;;;;;;17.73;4.15;;;;;;;18.61;51.84;98112.06;10425945;28;20088;-22
2022/01/21 12:02:50;;;;;;;13.53;3.87;;;;;;;18.51;51.90;98100.84;10414502;28;20439;-23
2022/01/21 12:07:51;;;;;;;9.82;4.30;;;;;;;18.59;52.31;98119.63;10455147;28;20411;-21
2022/01/21 12:12:54;;;;;;;12.27;5.20;;;;;;;18.58;52.56;98112.00;10422902;28;20044;-22
2022/01/21 12:18:17;;;;;;;9.93;3.40;;;;;;;18.54;52.66;98095.88;10413914;28;20029;-22
2022/01/21 12:23:19;;;;;;;9.90;4.47;;;;;;;18.59;52.55;98103.56;10419943;28;20416;-22
2022/01/21 12:28:21;;;;;;;14.85;3.60;;;;;;;18.65;51.51;98094.41;10419631;28;20045;-22
2022/01/21 12:33:23;;;;;;;11.45;4.35;;;;;;;18.60;52.92;98097.66;10413121;28;20072;-22
2022/01/21 12:43:46;;;;;;;9.18;3.53;;;;;;;18.56;52.94;98094.22;10446774;28;20033;-23
2022/01/21 12:48:47;;;;;;;10.68;5.90;;;;;;;18.51;53.48;98100.00;10452039;28;20029;-22
2022/01/21 12:59:33;;;;;;;11.93;4.88;;;;;;;18.52;53.00;98081.44;10371399;28;20060;-22
2022/01/21 13:04:50;;;;;;;14.93;5.23;;;;;;;18.43;53.86;98066.00;10392935;28;20059;-22
2022/01/21 13:10:20;;;;;;;14.38;5.72;;;;;;;18.53;53.62;98083.13;10445563;28;20065;-23
2022/01/21 13:15:20;;;;;;;11.75;6.78;;;;;;;18.58;53.65;98076.50;10411166;28;20033;-22
2022/01/21 13:20:28;;;;;;;24.92;7.80;;;;;;;18.61;53.32;98074.88;10411125;28;20064;-22
2022/01/21 13:25:31;;;;;;;26.15;8.75;;;;;;;18.57;52.28;98079.84;10419566;28;20033;-22
2022/01/21 13:30:35;;;;;;;23.48;9.77;;;;;;;18.58;53.90;98077.34;10443621;28;20120;-22
2022/01/21 13:35:38;;;;;;;24.33;9.48;;;;;;;18.59;53.62;98075.66;10410280;28;20040;-22
2022/01/21 13:40:42;;;;;;;19.42;9.20;;;;;;;18.45;53.87;98069.44;10416673;28;20412;-22
2022/01/21 13:46:00;;;;;;;17.40;8.23;;;;;;;18.56;53.72;98098.41;10410302;28;20072;-22
2022/01/21 13:51:02;;;;;;;19.23;8.70;;;;;;;18.55;53.69;98096.69;10438775;28;20059;-22
2022/01/21 13:56:08;;;;;;;24.10;9.38;;;;;;;18.53;53.44;98103.44;10436117;28;20091;-22
2022/01/21 14:01:13;;;;;;;19.60;8.90;;;;;;;18.49;53.71;98096.59;10406856;28;20036;-22
2022/01/21 14:06:17;;;;;;;19.17;8.27;;;;;;;18.57;53.76;98105.22;10437213;28;20348;-22
2022/01/21 14:11:27;;;;;;;17.95;7.82;;;;;;;18.54;53.17;98100.06;10432920;28;20124;-22
2022/01/21 14:16:31;;;;;;;19.48;9.38;;;;;;;18.58;53.42;98096.78;10408904;28;20041;-22
2022/01/21 14:21:33;;;;;;;18.58;7.53;;;;;;;18.54;53.59;98100.06;10434810;28;20167;-22
2022/01/21 14:26:50;;;;;;;15.50;7.97;;;;;;;18.52;53.54;98107.66;10430316;28;20035;-23
2022/01/21 14:31:52;;;;;;;15.30;5.57;;;;;;;18.54;53.65;98110.22;10409151;28;20038;-22
2022/01/21 14:37:12;;;;;;;17.35;7.05;;;;;;;18.62;53.06;98113.78;10436464;28;20071;-22
2022/01/21 14:42:25;;;;;;;9.60;5.03;;;;;;;18.69;52.98;98106.34;10425060;28;20121;-23
2022/01/21 14:47:31;;;;;;;14.82;5.85;;;;;;;18.76;53.05;98117.47;10408503;28;20045;-22
2022/01/21 14:52:37;;;;;;;17.63;8.07;;;;;;;18.82;52.84;98113.38;10427186;28;20029;-22
2022/01/21 14:57:45;;;;;;;13.00;6.45;;;;;;;18.88;52.70;98112.63;10421539;28;20034;-22
2022/01/21 15:02:45;;;;;;;13.80;8.02;;;;;;;18.91;52.61;98133.00;10408654;28;20040;-22
2022/01/21 15:07:49;;;;;;;16.97;7.23;;;;;;;18.97;52.65;98133.13;10408195;28;20487;-22
2022/01/21 15:18:13;;;;;;;12.05;6.32;;;;;;;19.03;52.22;98133.25;10439787;28;20091;-22
2022/01/21 15:23:14;;;;;;;13.55;6.60;;;;;;;19.14;51.96;98141.94;10408704;28;20488;-22
2022/01/21 15:28:15;;;;;;;12.65;6.07;;;;;;;19.19;51.69;98146.31;10438692;28;20033;-22
2022/01/21 15:33:15;;;;;;;12.00;6.30;;;;;;;19.23;51.72;98145.56;10444706;28;20316;-22
2022/01/21 15:38:15;;;;;;;12.40;6.70;;;;;;;19.29;51.89;98152.44;10412671;28;20326;-22
2022/01/21 15:43:16;;;;;;;18.85;5.97;;;;;;;19.29;51.60;98154.97;10447023;28;20104;-22
2022/01/21 15:48:16;;;;;;;15.10;5.63;;;;;;;19.36;51.49;98156.81;10456555;28;20407;-22
2022/01/21 15:53:17;;;;;;;11.13;6.87;;;;;;;19.37;51.38;98171.22;10416900;28;20038;-22
2022/01/21 15:58:17;;;;;;;12.40;5.73;;;;;;;19.38;51.20;98172.91;10434025;28;20034;-21
2022/01/21 16:03:21;;;;;;;11.50;6.87;;;;;;;19.52;50.84;98176.59;10414166;28;20280;-21
2022/01/21 16:08:21;;;;;;;14.50;6.72;;;;;;;19.59;50.71;98166.56;10413848;28;20280;-21
2022/01/21 16:13:22;;;;;;;10.90;6.00;;;;;;;19.64;50.57;98166.66;10414490;28;20033;-21
2022/01/21 16:18:23;;;;;;;10.02;6.07;;;;;;;19.64;50.52;98164.97;10413557;28;20033;-21
2022/01/21 16:23:23;;;;;;;9.25;5.07;;;;;;;19.64;50.22;98166.66;10413682;28;20108;-21
2022/01/21 16:28:24;;;;;;;13.13;6.33;;;;;;;19.38;50.77;98178.00;10412779;28;20038;-21
2022/01/21 16:33:26;;;;;;;11.73;7.38;;;;;;;19.27;51.15;98179.47;10424244;28;20406;-21
2022/01/21 16:38:28;;;;;;;11.25;5.55;;;;;;;19.09;51.17;98164.69;10453817;28;20033;-21
2022/01/21 16:43:30;;;;;;;8.52;4.88;;;;;;;19.18;51.15;98184.34;10418427;28;20034;-21
2022/01/21 16:48:30;;;;;;;9.02;5.55;;;;;;;19.13;51.50;98183.38;10412268;28;20109;-21
2022/01/21 16:53:31;;;;;;;8.20;4.72;;;;;;;19.05;51.23;98172.22;10412624;28;20080;-22
2022/01/21 16:58:31;;;;;;;15.03;5.00;;;;;;;19.05;50.49;98182.38;10411902;28;20029;-23
2022/01/21 17:03:32;;;;;;;9.48;5.53;;;;;;;19.10;50.89;98185.88;10436829;28;20028;-21
2022/01/21 17:08:32;;;;;;;10.60;5.03;;;;;;;19.08;51.17;98187.53;10434262;28;20138;-21
2022/01/21 17:13:32;;;;;;;11.10;5.43;;;;;;;19.08;51.39;98179.91;10405005;28;20045;-21
2022/01/21 17:18:33;;;;;;;9.23;4.93;;;;;;;19.09;51.37;98179.09;10408017;28;20045;-21
2022/01/21 17:23:33;;;;;;;11.27;5.00;;;;;;;18.94;50.69;98189.78;10447820;28;20040;-21
2022/01/21 17:28:34;;;;;;;13.43;6.13;;;;;;;18.96;51.59;98182.16;10449495;28;20033;-22
2022/01/21 17:33:34;;;;;;;10.20;5.13;;;;;;;18.95;51.75;98200.75;10452257;28;20033;-21
2022/01/21 17:38:35;;;;;;;10.27;5.63;;;;;;;18.90;51.93;98197.25;10410832;28;20303;-21
2022/01/21 17:43:37;;;;;;;8.48;4.47;;;;;;;18.89;51.77;98200.63;10444461;28;20075;-22
2022/01/21 17:48:38;;;;;;;9.13;5.03;;;;;;;18.86;51.93;98192.97;10439356;28;20029;-22
2022/01/21 17:53:38;;;;;;;7.30;4.40;;;;;;;18.83;51.82;98187.81;10410125;28;20116;-20
2022/01/21 17:58:39;;;;;;;11.15;5.57;;;;;;;18.82;51.89;98194.56;10405430;28;20752;-20
2022/01/21 18:03:39;;;;;;;8.27;4.82;;;;;;;18.83;51.99;98208.13;10381681;28;20064;-22
2022/01/21 18:08:40;;;;;;;14.63;5.20;;;;;;;18.78;52.16;98204.63;10394527;28;20041;-20
2022/01/21 18:13:42;;;;;;;13.13;4.68;;;;;;;18.84;52.42;98223.38;10397611;28;20034;-20
2022/01/21 18:18:44;;;;;;;9.40;5.43;;;;;;;18.81;52.83;98219.91;10396443;28;20045;-22
2022/01/21 18:23:46;;;;;;;12.25;5.45;;;;;;;18.80;52.93;98225.81;10387502;28;20030;-20
2022/01/21 18:28:47;;;;;;;9.10;5.35;;;;;;;18.79;52.82;98213.94;10387372;28;20044;-21
2022/01/21 18:33:47;;;;;;;10.93;4.78;;;;;;;18.81;52.71;98209.75;10386909;28;20048;-21
2022/01/21 18:38:48;;;;;;;10.10;5.68;;;;;;;18.83;52.53;98213.19;10408053;28;20515;-22
2022/01/21 18:43:48;;;;;;;18.40;5.17;;;;;;;18.83;52.72;98206.44;10444252;28;20601;-21
2022/01/21 18:48:50;;;;;;;8.02;4.63;;;;;;;18.85;52.73;98193.78;10412401;28;20299;-21
2022/01/21 18:53:51;;;;;;;21.92;4.50;;;;;;;18.83;52.95;98200.50;10408565;28;20084;-21
2022/01/21 18:58:51;;;;;;;9.88;4.90;;;;;;;18.78;52.84;98202.94;10407823;28;20041;-21
2022/01/21 19:03:53;;;;;;;10.52;5.22;;;;;;;18.79;52.71;98194.50;10389455;28;20033;-21
2022/01/21 19:08:56;;;;;;;11.48;4.68;;;;;;;18.74;52.81;98196.06;10386630;28;20329;-21
2022/01/21 19:13:57;;;;;;;8.80;4.63;;;;;;;18.80;52.71;98200.44;10393355;28;20036;-22
2022/01/21 19:18:57;;;;;;;8.73;4.57;;;;;;;18.79;52.37;98198.72;10397224;28;20084;-21
2022/01/21 19:24:12;;;;;;;10.55;4.30;;;;;;;18.83;52.18;98203.88;10372677;28;20033;-21
2022/01/21 19:29:12;;;;;;;9.90;4.47;;;;;;;18.83;52.30;98197.97;10411809;28;20065;-21
2022/01/21 19:34:13;;;;;;;12.00;4.30;;;;;;;18.83;52.12;98197.97;10411825;28;20124;-21
2022/01/21 19:39:13;;;;;;;10.47;4.87;;;;;;;18.83;52.06;98195.44;10385527;28;20079;-21
2022/01/21 19:44:15;;;;;;;9.73;4.70;;;;;;;18.78;51.85;98197.00;10450344;28;20040;-21
2022/01/21 19:49:16;;;;;;;5.43;3.67;;;;;;;18.78;51.66;98208.03;10450508;28;20427;-21
2022/01/21 19:54:16;;;;;;;5.20;3.78;;;;;;;18.81;51.53;98203.00;10452415;28;20029;-21
2022/01/21 19:59:35;;;;;;;9.13;4.10;;;;;;;18.80;51.55;98200.44;10411135;28;20577;-21
2022/01/21 20:09:55;;;;;;;7.18;4.18;;;;;;;18.71;51.49;98201.09;10450147;28;20044;-22
2022/01/21 20:15:19;;;;;;;5.23;3.87;;;;;;;18.79;51.38;98219.88;10418165;28;20049;-21
2022/01/21 20:20:18;;;;;;;5.22;3.53;;;;;;;18.79;51.64;98219.88;10409516;28;20306;-21
2022/01/21 20:25:18;;;;;;;9.67;4.10;;;;;;;18.78;51.55;98227.44;10416109;28;20035;-22
2022/01/21 20:30:19;;;;;;;8.25;3.58;;;;;;;18.71;51.70;98223.06;10450454;28;20122;-21
2022/01/21 20:35:21;;;;;;;4.90;3.67;;;;;;;18.71;51.31;98217.97;10449197;28;20438;-22
2022/01/21 20:45:27;;;;;;;5.47;3.75;;;;;;;18.68;51.68;98205.25;10375585;28;20502;-22
2022/01/21 20:50:27;;;;;;;6.57;3.47;;;;;;;18.60;51.55;98199.13;10392357;28;20026;-21
2022/01/21 20:55:28;;;;;;;5.40;3.13;;;;;;;18.72;51.51;98222.22;10384070;28;20083;-22
2022/01/21 21:00:29;;;;;;;7.10;3.53;;;;;;;18.74;51.44;98215.53;10386114;28;20095;-21
2022/01/21 21:05:29;;;;;;;5.38;3.33;;;;;;;18.72;51.57;98207.88;10435226;28;20295;-21
2022/01/21 21:10:30;;;;;;;5.13;3.03;;;;;;;18.72;51.38;98207.00;10438501;28;20044;-21
2022/01/21 21:15:33;;;;;;;5.28;2.97;;;;;;;18.65;51.74;98218.72;10388535;28;20041;-21
2022/01/21 21:26:03;;;;;;;5.68;3.13;;;;;;;18.68;51.94;98215.38;10388465;28;20040;-21
2022/01/21 22:35:27;;;;;;;9.13;4.35;;;;;;;18.67;52.41;98195.91;10441727;28;20299;-21
2022/01/21 22:50:28;;;;;;;8.75;3.17;;;;;;;18.62;52.73;98189.88;10424740;28;20037;-21
2022/01/21 23:00:56;;;;;;;4.40;3.15;;;;;;;18.64;52.51;98198.38;10407737;28;20103;-22
2022/01/21 23:05:59;;;;;;;7.55;3.63;;;;;;;18.63;52.47;98197.53;10431443;28;20252;-22
2022/01/21 23:11:00;;;;;;;7.57;2.80;;;;;;;18.66;52.48;98189.13;10447546;28;20061;-22
2022/01/21 23:16:01;;;;;;;7.55;3.05;;;;;;;18.64;52.67;98200.91;10448957;28;20068;-21
2022/01/21 23:21:02;;;;;;;4.05;2.47;;;;;;;18.65;52.60;98192.47;10430685;28;20091;-21
2022/01/21 23:26:07;;;;;;;8.13;3.03;;;;;;;18.66;52.50;98196.75;10421034;28;20138;-21
2022/01/21 23:31:07;;;;;;;6.43;3.35;;;;;;;18.65;52.63;98180.66;10448931;28;20039;-21
2022/01/21 23:36:08;;;;;;;6.27;3.50;;;;;;;18.60;52.66;98176.31;10447294;28;20497;-21
2022/01/21 23:41:13;;;;;;;5.15;3.30;;;;;;;18.60;52.52;98158.53;10432566;28;20030;-21
2022/01/21 23:46:14;;;;;;;6.18;2.83;;;;;;;18.63;52.50;98161.13;10407525;28;20064;-22
2022/01/21 23:51:19;;;;;;;4.88;2.72;;;;;;;18.65;52.36;98164.56;10432036;28;20037;-21
2022/01/21 23:56:20;;;;;;;8.60;2.97;;;;;;;18.65;52.55;98159.50;10430638;28;20030;-22
